Time;durP1;ratioP1;P1;durP2;ratioP2;P2;SDS_P1;SDS_P2;PMS_P1;PMS_P2;Temp;Humidity;BMP_temperature;BMP_pressure;BME280_temperature;BME280_humidity;BME280_pressure;Samples;Min_cycle;Max_cycle;Signal;HPM_P1;HPM_P2
2022/07/21 00:02:04;;;;;;;11.32;5.45;;;;;;;;;;5049946;28;20051;-71
2022/07/21 00:04:32;;;;;;;11.18;4.45;;;;;;;;;;5050149;28;20045;-71
2022/07/21 00:06:59;;;;;;;8.35;5.18;;;;;;;;;;5050028;28;20120;-71
2022/07/21 00:09:27;;;;;;;10.13;3.88;;;;;;;;;;5049864;28;20443;-71
2022/07/21 00:11:54;;;;;;;6.95;3.40;;;;;;;;;;5049794;28;20040;-71
2022/07/21 00:14:22;;;;;;;6.03;4.00;;;;;;;;;;5048806;28;20033;-71
2022/07/21 00:16:49;;;;;;;7.10;3.90;;;;;;;;;;5049902;28;20129;-71
2022/07/21 00:19:17;;;;;;;8.50;3.90;;;;;;;;;;5049792;28;20037;-71
2022/07/21 00:21:45;;;;;;;8.70;3.92;;;;;;;;;;5049494;28;20083;-71
2022/07/21 00:24:12;;;;;;;8.02;4.03;;;;;;;;;;5048659;28;20040;-72
2022/07/21 00:26:39;;;;;;;15.10;4.95;;;;;;;;;;5049244;28;20040;-71
2022/07/21 00:29:07;;;;;;;8.15;4.20;;;;;;;;;;5049645;28;20036;-71
2022/07/21 00:31:35;;;;;;;7.50;3.97;;;;;;;;;;5049373;28;20544;-71
2022/07/21 00:34:02;;;;;;;10.63;4.38;;;;;;;;;;5117673;28;20375;-72
2022/07/21 00:36:30;;;;;;;9.68;4.50;;;;;;;;;;5049411;28;20041;-71
2022/07/21 00:38:57;;;;;;;11.13;4.38;;;;;;;;;;5049166;28;20045;-71
2022/07/21 00:41:26;;;;;;;8.07;4.10;;;;;;;;;;5048064;28;20044;-71
2022/07/21 00:43:53;;;;;;;9.15;4.20;;;;;;;;;;5116948;28;20080;-71
2022/07/21 00:46:21;;;;;;;14.38;9.80;;;;;;;;;;5049531;28;20051;-71
2022/07/21 00:48:49;;;;;;;6.30;4.07;;;;;;;;;;5049386;28;20053;-71
2022/07/21 00:51:17;;;;;;;12.75;4.13;;;;;;;;;;5049099;28;20037;-71
2022/07/21 00:53:45;;;;;;;28.48;20.23;;;;;;;;;;5049328;28;20128;-71
2022/07/21 00:56:12;;;;;;;14.70;9.27;;;;;;;;;;5052558;28;20041;-71
2022/07/21 00:58:40;;;;;;;13.45;6.22;;;;;;;;;;5051435;28;20393;-71
2022/07/21 01:01:08;;;;;;;9.52;4.03;;;;;;;;;;5052055;28;20049;-71
2022/07/21 01:03:37;;;;;;;9.85;3.70;;;;;;;;;;5052664;28;20504;-71
2022/07/21 01:06:05;;;;;;;8.35;3.95;;;;;;;;;;5052440;28;20501;-71
2022/07/21 01:08:32;;;;;;;11.20;6.25;;;;;;;;;;5051824;28;20389;-71
2022/07/21 01:11:00;;;;;;;10.05;4.50;;;;;;;;;;5052681;28;20076;-71
2022/07/21 01:13:29;;;;;;;7.05;3.80;;;;;;;;;;5052567;28;20045;-71
2022/07/21 01:15:56;;;;;;;10.98;3.92;;;;;;;;;;5052368;28;20045;-71
2022/07/21 01:18:24;;;;;;;11.20;5.50;;;;;;;;;;5052537;28;20043;-71
2022/07/21 01:20:53;;;;;;;10.52;6.55;;;;;;;;;;5052345;28;20398;-72
2022/07/21 01:23:21;;;;;;;7.47;4.68;;;;;;;;;;5052454;28;20068;-71
2022/07/21 01:25:50;;;;;;;8.50;4.03;;;;;;;;;;5052380;28;20060;-71
2022/07/21 01:28:18;;;;;;;8.85;4.32;;;;;;;;;;5052749;27;20045;-71
2022/07/21 01:30:45;;;;;;;7.25;3.42;;;;;;;;;;5052494;28;20072;-71
2022/07/21 01:33:13;;;;;;;5.65;3.50;;;;;;;;;;5052244;28;20037;-71
2022/07/21 01:35:41;;;;;;;6.25;3.40;;;;;;;;;;5052146;28;20045;-71
2022/07/21 01:41:28;;;;;;;7.95;3.78;;;;;;;;;;5052269;28;20033;-71
2022/07/21 01:43:44;;;;;;;6.15;3.47;;;;;;;;;;5052241;28;20458;-72
2022/07/21 01:46:12;;;;;;;6.43;3.40;;;;;;;;;;5050778;28;20505;-71
2022/07/21 01:48:43;;;;;;;9.52;3.35;;;;;;;;;;5052051;28;20037;-71
2022/07/21 01:51:11;;;;;;;6.85;3.35;;;;;;;;;;5051871;28;20101;-71
2022/07/21 01:53:39;;;;;;;9.30;3.90;;;;;;;;;;5051951;28;20398;-72
2022/07/21 01:56:07;;;;;;;5.28;2.88;;;;;;;;;;5051888;28;20052;-71
2022/07/21 01:58:35;;;;;;;7.40;3.33;;;;;;;;;;5051852;28;20048;-71
2022/07/21 02:01:03;;;;;;;5.18;3.10;;;;;;;;;;5051583;28;20580;-71
2022/07/21 02:03:30;;;;;;;4.82;3.17;;;;;;;;;;5051693;28;20045;-71
2022/07/21 02:06:02;;;;;;;7.30;3.22;;;;;;;;;;5050636;28;20117;-71
2022/07/21 02:08:29;;;;;;;8.23;3.15;;;;;;;;;;5051856;28;20045;-72
2022/07/21 02:10:57;;;;;;;7.00;3.22;;;;;;;;;;5052302;28;20041;-71
2022/07/21 02:13:24;;;;;;;7.95;3.08;;;;;;;;;;5052118;28;20045;-72
2022/07/21 02:15:52;;;;;;;7.43;3.47;;;;;;;;;;5049903;28;20037;-71
2022/07/21 02:18:20;;;;;;;7.32;4.20;;;;;;;;;;5051267;28;20082;-71
2022/07/21 02:20:47;;;;;;;11.15;3.72;;;;;;;;;;5051435;28;20063;-71
2022/07/21 02:23:15;;;;;;;8.23;3.35;;;;;;;;;;5051230;28;20048;-71
2022/07/21 02:25:43;;;;;;;14.75;3.78;;;;;;;;;;5051123;28;20041;-71
2022/07/21 02:28:11;;;;;;;8.32;3.30;;;;;;;;;;5051516;28;20033;-71
2022/07/21 02:30:38;;;;;;;7.90;3.42;;;;;;;;;;5051174;28;20482;-71
2022/07/21 02:33:06;;;;;;;6.60;3.60;;;;;;;;;;5050640;28;20072;-71
2022/07/21 02:35:34;;;;;;;6.15;3.40;;;;;;;;;;5051031;28;20052;-71
2022/07/21 02:38:02;;;;;;;7.43;4.10;;;;;;;;;;5050404;28;20039;-71
2022/07/21 02:40:30;;;;;;;10.10;3.50;;;;;;;;;;5119635;27;20092;-71
2022/07/21 02:42:57;;;;;;;6.75;3.60;;;;;;;;;;5051284;28;20390;-71
2022/07/21 02:45:25;;;;;;;10.02;4.03;;;;;;;;;;5050883;28;20501;-71
2022/07/21 02:47:53;;;;;;;9.30;4.15;;;;;;;;;;5051236;28;20045;-72
2022/07/21 02:50:21;;;;;;;8.77;3.95;;;;;;;;;;5051170;28;20048;-71
2022/07/21 02:52:49;;;;;;;7.15;3.95;;;;;;;;;;5120165;27;20452;-71
2022/07/21 02:55:16;;;;;;;9.93;3.47;;;;;;;;;;5051177;28;20043;-71
2022/07/21 02:57:44;;;;;;;12.63;4.28;;;;;;;;;;5051298;28;20069;-71
2022/07/21 03:00:13;;;;;;;12.18;3.90;;;;;;;;;;5051062;28;20145;-71
2022/07/21 03:02:40;;;;;;;11.43;4.30;;;;;;;;;;5050848;28;20447;-71
2022/07/21 03:05:08;;;;;;;9.18;4.15;;;;;;;;;;5050874;28;20044;-71
2022/07/21 03:07:35;;;;;;;8.57;4.03;;;;;;;;;;5050845;28;20502;-71
2022/07/21 03:10:03;;;;;;;8.80;3.65;;;;;;;;;;5050819;28;20047;-71
2022/07/21 03:12:31;;;;;;;7.63;3.72;;;;;;;;;;5119035;27;20053;-71
2022/07/21 03:14:58;;;;;;;9.05;4.20;;;;;;;;;;5050327;28;20041;-71
2022/07/21 03:17:26;;;;;;;13.60;3.85;;;;;;;;;;5049142;28;20080;-71
2022/07/21 03:19:53;;;;;;;10.52;3.50;;;;;;;;;;5049644;28;20043;-71
2022/07/21 03:22:21;;;;;;;9.40;3.60;;;;;;;;;;5050608;28;20045;-71
2022/07/21 03:24:50;;;;;;;10.30;3.70;;;;;;;;;;5118803;27;20041;-71
2022/07/21 03:27:18;;;;;;;9.43;3.58;;;;;;;;;;5050265;28;20048;-71
2022/07/21 03:29:46;;;;;;;14.45;4.10;;;;;;;;;;5050552;28;20032;-71
2022/07/21 03:32:13;;;;;;;7.65;3.92;;;;;;;;;;5049166;28;20436;-71
2022/07/21 03:34:41;;;;;;;10.75;5.15;;;;;;;;;;5049794;28;20037;-71
2022/07/21 03:37:08;;;;;;;7.93;3.60;;;;;;;;;;5050044;28;20486;-71
2022/07/21 03:39:36;;;;;;;13.90;4.68;;;;;;;;;;5050287;28;20041;-71
2022/07/21 03:42:04;;;;;;;14.32;4.82;;;;;;;;;;5048817;28;20068;-71
2022/07/21 03:44:31;;;;;;;28.70;6.30;;;;;;;;;;5049116;28;20457;-68
2022/07/21 03:46:59;;;;;;;18.83;6.47;;;;;;;;;;5050058;28;20041;-68
2022/07/21 03:49:27;;;;;;;14.85;8.00;;;;;;;;;;5049731;28;20524;-68
2022/07/21 03:51:54;;;;;;;19.15;8.35;;;;;;;;;;5050171;28;20467;-68
2022/07/21 03:54:22;;;;;;;17.85;9.25;;;;;;;;;;5048936;28;20565;-68
2022/07/21 03:56:49;;;;;;;15.82;8.20;;;;;;;;;;5049870;28;20090;-68
2022/07/21 03:59:17;;;;;;;19.73;8.60;;;;;;;;;;5049797;28;20041;-69
2022/07/21 04:01:45;;;;;;;19.00;8.70;;;;;;;;;;5049902;28;20045;-68
2022/07/21 04:04:13;;;;;;;23.15;7.78;;;;;;;;;;5049670;28;20044;-68
2022/07/21 04:06:40;;;;;;;18.75;6.75;;;;;;;;;;5049950;28;20045;-68
2022/07/21 04:09:07;;;;;;;20.90;7.05;;;;;;;;;;5049883;28;20044;-68
2022/07/21 04:11:35;;;;;;;11.18;5.68;;;;;;;;;;5049851;28;20041;-69
2022/07/21 04:14:02;;;;;;;16.02;6.85;;;;;;;;;;5050019;28;20041;-68
2022/07/21 04:16:30;;;;;;;11.05;5.53;;;;;;;;;;5049673;28;20041;-68
2022/07/21 04:18:58;;;;;;;18.75;6.35;;;;;;;;;;5049789;28;20090;-68
2022/07/21 04:21:25;;;;;;;22.55;6.63;;;;;;;;;;5049516;28;20256;-68
2022/07/21 04:23:53;;;;;;;18.40;8.45;;;;;;;;;;5049737;28;20478;-68
2022/07/21 04:26:20;;;;;;;17.90;9.00;;;;;;;;;;5049582;28;20052;-68
2022/07/21 04:28:48;;;;;;;24.52;11.77;;;;;;;;;;5048438;28;20033;-68
2022/07/21 04:31:16;;;;;;;16.50;7.72;;;;;;;;;;5048122;28;20098;-68
2022/07/21 04:33:44;;;;;;;13.27;7.38;;;;;;;;;;5048026;28;20037;-68
2022/07/21 04:36:11;;;;;;;15.45;6.75;;;;;;;;;;5048331;28;20041;-69
2022/07/21 04:38:39;;;;;;;10.63;6.82;;;;;;;;;;5049146;27;20120;-68
2022/07/21 04:41:06;;;;;;;15.90;5.70;;;;;;;;;;5048967;28;20506;-69
2022/07/21 04:43:34;;;;;;;18.13;8.57;;;;;;;;;;5049029;28;20045;-69
2022/07/21 04:46:02;;;;;;;34.75;15.68;;;;;;;;;;5049256;28;20517;-69
2022/07/21 04:48:30;;;;;;;16.63;7.30;;;;;;;;;;5049403;28;20088;-69
2022/07/21 04:50:57;;;;;;;18.27;7.93;;;;;;;;;;5049271;28;20041;-71
2022/07/21 04:53:25;;;;;;;28.30;16.25;;;;;;;;;;5049113;28;20048;-71
2022/07/21 04:55:52;;;;;;;13.05;6.30;;;;;;;;;;5117911;28;20076;-71
2022/07/21 04:58:20;;;;;;;23.55;8.40;;;;;;;;;;5047436;28;20034;-71
2022/07/21 05:00:47;;;;;;;16.20;6.25;;;;;;;;;;5049170;28;20383;-71
2022/07/21 05:03:15;;;;;;;49.08;14.25;;;;;;;;;;5049452;28;20402;-71
2022/07/21 05:05:42;;;;;;;31.48;8.70;;;;;;;;;;5049262;28;20045;-71
2022/07/21 05:08:10;;;;;;;48.20;13.60;;;;;;;;;;5049110;28;20062;-71
2022/07/21 05:10:37;;;;;;;56.47;10.57;;;;;;;;;;5049056;28;20049;-71
2022/07/21 05:13:05;;;;;;;29.05;8.32;;;;;;;;;;5049114;28;20049;-71
2022/07/21 05:15:32;;;;;;;16.98;6.80;;;;;;;;;;5048939;28;20041;-71
2022/07/21 05:18:00;;;;;;;17.70;6.88;;;;;;;;;;5049157;28;20065;-71
2022/07/21 05:20:27;;;;;;;15.23;7.78;;;;;;;;;;5049087;28;20541;-71
2022/07/21 05:22:55;;;;;;;18.42;8.20;;;;;;;;;;5049035;28;20436;-71
2022/07/21 05:25:22;;;;;;;21.88;8.70;;;;;;;;;;5049080;28;20045;-71
2022/07/21 05:27:50;;;;;;;30.60;11.05;;;;;;;;;;5049199;28;20069;-71
2022/07/21 05:30:17;;;;;;;43.28;9.55;;;;;;;;;;5048959;28;20049;-71
2022/07/21 05:32:45;;;;;;;33.80;13.10;;;;;;;;;;5048894;28;20518;-71
2022/07/21 05:35:14;;;;;;;36.67;9.40;;;;;;;;;;5048709;28;20102;-71
2022/07/21 05:37:42;;;;;;;17.67;6.18;;;;;;;;;;5048847;28;20049;-71
2022/07/21 05:40:10;;;;;;;17.42;6.18;;;;;;;;;;5049578;28;20037;-71
2022/07/21 05:42:39;;;;;;;21.75;8.32;;;;;;;;;;5052236;28;20044;-71
2022/07/21 05:45:07;;;;;;;19.27;6.50;;;;;;;;;;5052015;28;20532;-71
2022/07/21 05:47:35;;;;;;;23.92;7.65;;;;;;;;;;5052133;28;20045;-71
2022/07/21 05:50:02;;;;;;;16.83;6.53;;;;;;;;;;5052184;28;20042;-71
2022/07/21 05:52:30;;;;;;;21.00;7.63;;;;;;;;;;5052097;28;20039;-71
2022/07/21 05:54:57;;;;;;;24.15;7.70;;;;;;;;;;5052150;28;20098;-71
2022/07/21 05:57:25;;;;;;;15.15;6.30;;;;;;;;;;5052013;28;20044;-71
2022/07/21 05:59:53;;;;;;;13.88;6.35;;;;;;;;;;5120702;27;20090;-71
2022/07/21 06:02:20;;;;;;;17.55;7.00;;;;;;;;;;5120436;27;20052;-71
2022/07/21 06:04:48;;;;;;;9.80;5.32;;;;;;;;;;5052216;28;20040;-71
2022/07/21 06:07:15;;;;;;;13.07;5.50;;;;;;;;;;5052353;28;20049;-71
2022/07/21 06:09:43;;;;;;;10.02;5.95;;;;;;;;;;5052728;28;20071;-71
2022/07/21 06:12:10;;;;;;;15.70;5.65;;;;;;;;;;5052921;28;20045;-71
2022/07/21 06:14:38;;;;;;;15.88;5.50;;;;;;;;;;5051638;28;20498;-71
2022/07/21 06:17:05;;;;;;;11.05;5.00;;;;;;;;;;5051622;28;20048;-71
2022/07/21 06:19:33;;;;;;;11.35;5.25;;;;;;;;;;5051635;28;20044;-71
2022/07/21 06:22:02;;;;;;;8.82;4.90;;;;;;;;;;5051430;28;20056;-71
2022/07/21 06:24:30;;;;;;;10.48;4.90;;;;;;;;;;5051459;28;20062;-71
2022/07/21 06:26:57;;;;;;;9.48;4.55;;;;;;;;;;5051409;28;20052;-71
2022/07/21 06:29:32;;;;;;;8.48;5.03;;;;;;;;;;5051438;28;20065;-71
2022/07/21 06:31:59;;;;;;;7.28;4.47;;;;;;;;;;5051367;28;20101;-70
2022/07/21 06:34:27;;;;;;;10.25;3.78;;;;;;;;;;5051221;28;20044;-72
2022/07/21 06:36:54;;;;;;;12.77;4.05;;;;;;;;;;5051135;28;20045;-71
2022/07/21 06:39:22;;;;;;;8.38;3.45;;;;;;;;;;5051189;28;20049;-70
2022/07/21 06:41:49;;;;;;;4.85;3.35;;;;;;;;;;5051214;28;20045;-71
2022/07/21 06:44:18;;;;;;;6.30;3.30;;;;;;;;;;5050939;28;20053;-70
2022/07/21 06:46:46;;;;;;;11.18;4.05;;;;;;;;;;5051112;28;20048;-70
2022/07/21 06:49:13;;;;;;;14.68;4.15;;;;;;;;;;5051079;28;20059;-71
2022/07/21 06:51:41;;;;;;;4.88;3.53;;;;;;;;;;5051356;28;20128;-70
2022/07/21 06:54:08;;;;;;;6.97;3.53;;;;;;;;;;5051108;28;20029;-70
2022/07/21 06:56:36;;;;;;;8.60;3.40;;;;;;;;;;5050933;28;20072;-71
2022/07/21 06:59:03;;;;;;;5.05;3.55;;;;;;;;;;5051295;28;20044;-70
2022/07/21 07:01:31;;;;;;;9.57;4.00;;;;;;;;;;5050916;28;20052;-71
2022/07/21 07:03:59;;;;;;;7.50;3.97;;;;;;;;;;5050872;28;20066;-70
2022/07/21 07:06:27;;;;;;;5.78;3.58;;;;;;;;;;5050792;28;20048;-71
2022/07/21 07:08:54;;;;;;;9.30;4.85;;;;;;;;;;5050996;28;20080;-70
2022/07/21 07:11:22;;;;;;;9.15;5.53;;;;;;;;;;5050827;28;20094;-70
2022/07/21 07:13:50;;;;;;;17.15;5.00;;;;;;;;;;5050582;28;20052;-70
2022/07/21 07:16:25;;;;;;;14.30;5.07;;;;;;;;;;5050569;28;20041;-70
2022/07/21 07:18:53;;;;;;;10.80;3.70;;;;;;;;;;5050487;28;20124;-70
2022/07/21 07:21:21;;;;;;;5.93;3.85;;;;;;;;;;5050576;28;20049;-70
2022/07/21 07:23:51;;;;;;;5.55;3.45;;;;;;;;;;5050531;28;20402;-71
2022/07/21 07:26:19;;;;;;;8.95;3.80;;;;;;;;;;5050388;28;20052;-71
2022/07/21 07:28:46;;;;;;;9.18;4.40;;;;;;;;;;5050523;28;20037;-70
2022/07/21 07:31:14;;;;;;;9.35;5.35;;;;;;;;;;5050500;28;20554;-70
2022/07/21 07:33:41;;;;;;;10.52;5.53;;;;;;;;;;5118577;27;20048;-70
2022/07/21 07:36:12;;;;;;;12.40;5.93;;;;;;;;;;5050159;28;20060;-70
2022/07/21 07:38:40;;;;;;;11.02;6.75;;;;;;;;;;5050203;28;20494;-71
2022/07/21 07:41:07;;;;;;;12.23;5.00;;;;;;;;;;5050347;28;20066;-70
2022/07/21 07:43:36;;;;;;;10.10;6.57;;;;;;;;;;5050445;28;20055;-70
2022/07/21 07:46:04;;;;;;;11.32;5.65;;;;;;;;;;5118696;27;20053;-70
2022/07/21 07:48:34;;;;;;;11.40;5.90;;;;;;;;;;5050168;28;20120;-70
2022/07/21 07:51:01;;;;;;;7.00;5.30;;;;;;;;;;5050148;28;20041;-70
2022/07/21 07:53:29;;;;;;;10.30;5.35;;;;;;;;;;5050107;28;20041;-71
2022/07/21 07:55:56;;;;;;;11.07;5.50;;;;;;;;;;5049967;28;20041;-70
2022/07/21 07:58:24;;;;;;;12.10;5.22;;;;;;;;;;5050059;28;20045;-71
2022/07/21 08:00:51;;;;;;;9.60;5.82;;;;;;;;;;5049952;28;20048;-70
2022/07/21 08:03:23;;;;;;;8.10;5.55;;;;;;;;;;5049418;28;20524;-71
2022/07/21 08:05:51;;;;;;;9.30;4.90;;;;;;;;;;5118649;27;20401;-71
2022/07/21 08:08:19;;;;;;;10.18;6.60;;;;;;;;;;5049979;28;20048;-71
2022/07/21 08:10:46;;;;;;;9.55;6.38;;;;;;;;;;5049934;28;20040;-71
2022/07/21 08:13:15;;;;;;;7.13;4.78;;;;;;;;;;5049822;28;20055;-70
2022/07/21 08:15:43;;;;;;;8.90;3.72;;;;;;;;;;5050113;28;20057;-71
2022/07/21 08:18:11;;;;;;;7.32;3.88;;;;;;;;;;5049722;28;20044;-71
2022/07/21 08:20:38;;;;;;;8.85;3.72;;;;;;;;;;5049736;28;20045;-71
2022/07/21 08:23:06;;;;;;;6.32;3.78;;;;;;;;;;5049719;28;20045;-71
2022/07/21 08:25:34;;;;;;;7.03;4.75;;;;;;;;;;5049659;28;20466;-71
2022/07/21 08:28:01;;;;;;;9.10;3.72;;;;;;;;;;5049695;28;20045;-70
2022/07/21 08:30:29;;;;;;;7.45;4.07;;;;;;;;;;5049595;28;20512;-72
2022/07/21 08:32:59;;;;;;;6.80;3.70;;;;;;;;;;5049610;28;20041;-71
2022/07/21 08:35:27;;;;;;;7.57;3.55;;;;;;;;;;5049506;28;20127;-71
2022/07/21 08:37:59;;;;;;;7.80;4.60;;;;;;;;;;5049712;28;20045;-71
2022/07/21 08:40:28;;;;;;;6.60;3.75;;;;;;;;;;5049305;28;20041;-71
2022/07/21 08:42:55;;;;;;;14.45;4.20;;;;;;;;;;5049611;28;20041;-71
2022/07/21 08:45:23;;;;;;;9.07;4.13;;;;;;;;;;5049172;28;20056;-72
2022/07/21 08:47:52;;;;;;;7.93;3.92;;;;;;;;;;5049369;28;20063;-71
2022/07/21 08:50:20;;;;;;;6.93;3.50;;;;;;;;;;5049684;28;20063;-72
2022/07/21 08:52:47;;;;;;;5.65;3.72;;;;;;;;;;5049330;28;20056;-71
2022/07/21 08:55:15;;;;;;;8.45;3.72;;;;;;;;;;5049281;28;20037;-72
2022/07/21 08:57:43;;;;;;;8.48;3.58;;;;;;;;;;5049320;28;20033;-72
2022/07/21 09:00:13;;;;;;;6.57;3.65;;;;;;;;;;5049107;28;20483;-72
2022/07/21 09:02:41;;;;;;;13.05;4.47;;;;;;;;;;5049260;28;20045;-71
2022/07/21 09:05:09;;;;;;;12.38;4.55;;;;;;;;;;5049169;28;20045;-71
2022/07/21 09:07:49;;;;;;;7.07;4.35;;;;;;;;;;5049492;28;20045;-71
2022/07/21 09:10:21;;;;;;;10.60;4.35;;;;;;;;;;5049338;28;20041;-71
2022/07/21 09:12:49;;;;;;;8.02;4.60;;;;;;;;;;5049167;28;20075;-71
2022/07/21 09:15:19;;;;;;;5.07;3.75;;;;;;;;;;5049888;28;20044;-71
2022/07/21 09:17:46;;;;;;;10.02;4.55;;;;;;;;;;5052430;28;20045;-71
2022/07/21 09:20:34;;;;;;;9.65;4.22;;;;;;;;;;5052279;28;20041;-71
2022/07/21 09:23:03;;;;;;;10.38;4.55;;;;;;;;;;5052490;28;20041;-70
2022/07/21 09:25:36;;;;;;;9.77;3.83;;;;;;;;;;5052433;28;20478;-71
2022/07/21 09:28:11;;;;;;;14.68;8.68;;;;;;;;;;5052412;28;20051;-71
2022/07/21 09:30:52;;;;;;;8.63;3.97;;;;;;;;;;5052271;28;20098;-71
2022/07/21 09:33:21;;;;;;;7.80;4.07;;;;;;;;;;5052375;28;20125;-71
2022/07/21 09:36:15;;;;;;;5.53;3.80;;;;;;;;;;5052546;28;20037;-71
2022/07/21 09:38:44;;;;;;;8.32;3.97;;;;;;;;;;5052237;27;20061;-71
2022/07/21 09:41:14;;;;;;;5.60;3.95;;;;;;;;;;5052213;28;20037;-72
2022/07/21 09:43:43;;;;;;;7.90;4.03;;;;;;;;;;5052032;28;20065;-71
2022/07/21 09:46:12;;;;;;;8.25;3.80;;;;;;;;;;5052004;28;20057;-71
2022/07/21 09:48:41;;;;;;;6.35;4.07;;;;;;;;;;5052122;28;20048;-71
2022/07/21 09:51:27;;;;;;;5.15;3.75;;;;;;;;;;5051932;28;20045;-71
2022/07/21 09:53:55;;;;;;;5.03;3.35;;;;;;;;;;5051989;28;20408;-71
2022/07/21 09:56:24;;;;;;;24.40;4.57;;;;;;;;;;5051797;28;20052;-71
2022/07/21 09:58:53;;;;;;;7.68;3.55;;;;;;;;;;5051916;28;20120;-71
2022/07/21 10:01:21;;;;;;;6.18;3.65;;;;;;;;;;5051845;28;20037;-71
2022/07/21 10:03:50;;;;;;;7.43;3.75;;;;;;;;;;5051932;28;20506;-71
2022/07/21 10:06:18;;;;;;;4.85;3.80;;;;;;;;;;5051679;28;20045;-71
2022/07/21 10:08:46;;;;;;;8.13;3.45;;;;;;;;;;5051665;28;20048;-71
2022/07/21 10:11:14;;;;;;;5.85;3.45;;;;;;;;;;5051666;28;20045;-71
2022/07/21 10:13:46;;;;;;;6.20;3.22;;;;;;;;;;5051718;28;20069;-71
2022/07/21 10:16:14;;;;;;;8.18;3.80;;;;;;;;;;5051692;28;20041;-71
2022/07/21 10:21:46;;;;;;;4.28;3.30;;;;;;;;;;5051565;28;20070;-71
2022/07/21 10:24:14;;;;;;;4.68;3.55;;;;;;;;;;5051661;28;20037;-71
2022/07/21 10:27:00;;;;;;;5.78;3.40;;;;;;;;;;5051032;28;20044;-71
2022/07/21 10:29:46;;;;;;;10.90;3.75;;;;;;;;;;5051580;28;20453;-71
2022/07/21 10:32:17;;;;;;;8.55;3.00;;;;;;;;;;5051372;28;20072;-71
2022/07/21 10:34:45;;;;;;;4.65;3.45;;;;;;;;;;5051396;28;20105;-71
2022/07/21 10:37:33;;;;;;;5.50;3.25;;;;;;;;;;5051252;28;20601;-71
2022/07/21 10:40:00;;;;;;;8.10;3.55;;;;;;;;;;5051245;28;20457;-71
2022/07/21 10:42:28;;;;;;;6.40;3.60;;;;;;;;;;5051244;28;20130;-71
2022/07/21 10:44:58;;;;;;;5.72;3.38;;;;;;;;;;5051001;28;20059;-71
2022/07/21 10:47:30;;;;;;;6.65;3.50;;;;;;;;;;5051198;28;20076;-71
2022/07/21 10:50:07;;;;;;;9.88;3.90;;;;;;;;;;5051100;28;20117;-72
2022/07/21 10:52:45;;;;;;;4.75;3.30;;;;;;;;;;5051047;28;20482;-71
2022/07/21 10:55:28;;;;;;;9.38;4.07;;;;;;;;;;5051012;28;20037;-71
2022/07/21 10:58:13;;;;;;;6.57;3.45;;;;;;;;;;5051008;28;20052;-71
2022/07/21 11:00:46;;;;;;;7.10;3.63;;;;;;;;;;5050935;28;20076;-71
2022/07/21 11:03:22;;;;;;;5.47;3.13;;;;;;;;;;5050927;28;20448;-71
2022/07/21 11:06:08;;;;;;;6.47;3.60;;;;;;;;;;5050855;28;20045;-71
2022/07/21 11:08:39;;;;;;;6.13;3.50;;;;;;;;;;5050791;28;20052;-71
2022/07/21 11:11:39;;;;;;;6.07;3.40;;;;;;;;;;5051163;28;20041;-71
2022/07/21 11:14:14;;;;;;;7.53;3.20;;;;;;;;;;5051103;27;20053;-71
2022/07/21 11:16:42;;;;;;;5.38;3.28;;;;;;;;;;5050594;28;20282;-71
2022/07/21 11:19:29;;;;;;;7.22;3.80;;;;;;;;;;5050534;28;20098;-72
2022/07/21 11:21:57;;;;;;;6.15;3.95;;;;;;;;;;5050508;28;20440;-71
2022/07/21 11:24:26;;;;;;;5.40;3.42;;;;;;;;;;5050617;28;20048;-72
2022/07/21 11:27:10;;;;;;;8.20;3.95;;;;;;;;;;5050499;28;20041;-71
2022/07/21 11:29:38;;;;;;;8.32;4.07;;;;;;;;;;5050461;28;20065;-71
2022/07/21 11:32:06;;;;;;;10.60;5.57;;;;;;;;;;5050463;28;20393;-71
2022/07/21 11:34:49;;;;;;;9.43;4.18;;;;;;;;;;5118625;27;20048;-72
2022/07/21 11:37:18;;;;;;;9.65;7.05;;;;;;;;;;5050028;28;20108;-72
2022/07/21 11:40:14;;;;;;;7.03;5.30;;;;;;;;;;5050271;28;20049;-71
2022/07/21 11:42:43;;;;;;;6.53;5.30;;;;;;;;;;5050228;28;20052;-71
2022/07/21 11:45:11;;;;;;;11.65;5.13;;;;;;;;;;5050047;28;20052;-71
2022/07/21 11:47:39;;;;;;;10.43;4.90;;;;;;;;;;5118340;27;20049;-72
2022/07/21 11:50:07;;;;;;;6.85;3.72;;;;;;;;;;5050166;28;20045;-71
2022/07/21 11:52:37;;;;;;;8.70;4.70;;;;;;;;;;5047052;28;20033;-72
2022/07/21 11:55:05;;;;;;;10.45;5.18;;;;;;;;;;5048095;28;20051;-72
2022/07/21 11:57:34;;;;;;;6.10;3.80;;;;;;;;;;5049526;28;20041;-72
2022/07/21 12:00:07;;;;;;;6.45;3.75;;;;;;;;;;5049774;28;20039;-71
2022/07/21 12:02:38;;;;;;;7.63;4.38;;;;;;;;;;5049645;28;20049;-71
2022/07/21 12:05:08;;;;;;;9.98;4.30;;;;;;;;;;5047478;28;20061;-71
2022/07/21 12:07:35;;;;;;;6.97;4.25;;;;;;;;;;5109473;27;20043;-72
2022/07/21 12:10:07;;;;;;;5.68;3.92;;;;;;;;;;5049433;27;20056;-71
2022/07/21 12:12:35;;;;;;;9.23;3.58;;;;;;;;;;5104054;27;20041;-71
2022/07/21 12:15:12;;;;;;;7.78;4.10;;;;;;;;;;5042485;28;20048;-71
2022/07/21 12:17:41;;;;;;;8.48;4.85;;;;;;;;;;5029630;28;20451;-71
2022/07/21 12:20:09;;;;;;;8.48;5.25;;;;;;;;;;5031598;28;20041;-69
2022/07/21 12:22:44;;;;;;;8.52;4.82;;;;;;;;;;5048752;28;20124;-71
2022/07/21 12:25:12;;;;;;;12.52;3.70;;;;;;;;;;5043329;27;20547;-71
2022/07/21 12:27:41;;;;;;;9.75;3.60;;;;;;;;;;5034961;28;20047;-71
2022/07/21 12:30:09;;;;;;;8.95;3.92;;;;;;;;;;5040052;28;20101;-70
2022/07/21 12:32:42;;;;;;;6.03;3.67;;;;;;;;;;5105115;27;20036;-71
2022/07/21 12:35:23;;;;;;;9.45;4.30;;;;;;;;;;5096722;28;20379;-71
2022/07/21 12:38:00;;;;;;;7.80;3.60;;;;;;;;;;5048894;28;20402;-71
2022/07/21 12:40:29;;;;;;;6.22;3.65;;;;;;;;;;5049086;28;20037;-71
2022/07/21 12:43:06;;;;;;;6.07;3.45;;;;;;;;;;5048886;28;20049;-72
2022/07/21 12:45:44;;;;;;;5.20;3.55;;;;;;;;;;5048761;28;20053;-72
2022/07/21 12:48:13;;;;;;;13.63;4.97;;;;;;;;;;5048805;28;20045;-72
2022/07/21 12:50:42;;;;;;;9.13;4.53;;;;;;;;;;5051800;28;20128;-71
2022/07/21 12:53:10;;;;;;;7.53;3.58;;;;;;;;;;5052556;28;20045;-71
2022/07/21 12:55:38;;;;;;;7.35;3.60;;;;;;;;;;5052531;28;20062;-71
2022/07/21 12:58:06;;;;;;;6.43;3.78;;;;;;;;;;5052110;28;20132;-71
2022/07/21 13:00:34;;;;;;;5.45;3.92;;;;;;;;;;5052608;28;20041;-71
2022/07/21 13:03:01;;;;;;;5.05;3.28;;;;;;;;;;5052370;28;20045;-71
2022/07/21 13:05:29;;;;;;;9.68;3.25;;;;;;;;;;5041157;28;20105;-71
2022/07/21 13:07:56;;;;;;;10.18;4.40;;;;;;;;;;5052263;28;20121;-71
2022/07/21 13:10:24;;;;;;;7.78;4.30;;;;;;;;;;5052068;28;20041;-71
2022/07/21 13:12:51;;;;;;;7.93;3.47;;;;;;;;;;5051999;28;20132;-71
2022/07/21 13:15:19;;;;;;;8.88;4.80;;;;;;;;;;5052028;28;20056;-71
2022/07/21 13:17:47;;;;;;;6.80;3.75;;;;;;;;;;5051953;28;20124;-71
2022/07/21 13:20:15;;;;;;;8.95;3.60;;;;;;;;;;5052063;28;20047;-71
2022/07/21 13:22:42;;;;;;;6.13;3.55;;;;;;;;;;5051800;28;20033;-71
2022/07/21 13:25:11;;;;;;;10.15;3.53;;;;;;;;;;5052076;28;20061;-71
2022/07/21 13:27:38;;;;;;;6.78;3.60;;;;;;;;;;5051904;28;20486;-71
2022/07/21 13:30:08;;;;;;;6.20;3.72;;;;;;;;;;5052093;28;20044;-71
2022/07/21 13:32:36;;;;;;;6.82;3.10;;;;;;;;;;5051736;28;20086;-71
2022/07/21 13:35:07;;;;;;;5.25;3.38;;;;;;;;;;5052012;28;20128;-71
2022/07/21 13:37:55;;;;;;;6.47;3.58;;;;;;;;;;5071614;27;20045;-70
2022/07/21 13:40:22;;;;;;;5.70;3.20;;;;;;;;;;5051842;28;20037;-71
2022/07/21 13:43:12;;;;;;;4.63;3.38;;;;;;;;;;5052000;27;20496;-71
2022/07/21 13:45:59;;;;;;;5.03;3.22;;;;;;;;;;5051476;28;20133;-70
2022/07/21 13:48:27;;;;;;;7.47;3.33;;;;;;;;;;5051532;28;20090;-71
2022/07/21 13:50:54;;;;;;;6.28;3.55;;;;;;;;;;5051862;28;20067;-71
2022/07/21 13:53:22;;;;;;;7.57;3.88;;;;;;;;;;5051697;28;20052;-71
2022/07/21 13:55:53;;;;;;;5.55;3.10;;;;;;;;;;5099930;27;20428;-71
2022/07/21 13:58:21;;;;;;;5.80;4.00;;;;;;;;;;5051386;28;20037;-71
2022/07/21 14:00:48;;;;;;;8.68;3.65;;;;;;;;;;5050750;28;20041;-70
2022/07/21 14:03:16;;;;;;;8.98;3.40;;;;;;;;;;5051262;28;20505;-71
2022/07/21 14:05:44;;;;;;;6.53;3.50;;;;;;;;;;5042497;28;20470;-71
2022/07/21 14:08:12;;;;;;;10.40;6.57;;;;;;;;;;5046098;28;20514;-70
2022/07/21 14:10:40;;;;;;;6.40;3.75;;;;;;;;;;5111355;27;20104;-65
2022/07/21 14:13:08;;;;;;;6.60;3.90;;;;;;;;;;5033024;28;20099;-64
2022/07/21 14:15:35;;;;;;;5.18;3.55;;;;;;;;;;5077404;27;20129;-65
2022/07/21 14:18:03;;;;;;;5.32;3.42;;;;;;;;;;5041065;28;20045;-65
2022/07/21 14:20:31;;;;;;;7.68;3.75;;;;;;;;;;5037897;28;20077;-65
2022/07/21 14:22:58;;;;;;;7.90;3.53;;;;;;;;;;5050739;28;20048;-65
2022/07/21 14:25:26;;;;;;;7.47;3.65;;;;;;;;;;5050831;28;20041;-66
2022/07/21 14:27:55;;;;;;;6.88;3.47;;;;;;;;;;5050737;28;20045;-66
2022/07/21 14:30:23;;;;;;;6.93;3.40;;;;;;;;;;5050746;28;20402;-66
2022/07/21 14:32:51;;;;;;;8.13;3.70;;;;;;;;;;5033927;28;20046;-66
2022/07/21 14:35:20;;;;;;;5.50;3.25;;;;;;;;;;5044741;28;20054;-66
2022/07/21 14:37:48;;;;;;;9.10;3.75;;;;;;;;;;5050489;28;20116;-66
2022/07/21 14:40:16;;;;;;;8.85;3.35;;;;;;;;;;5096605;27;20045;-66
2022/07/21 14:42:45;;;;;;;8.00;3.25;;;;;;;;;;5050125;28;20068;-66
2022/07/21 14:45:14;;;;;;;8.45;4.03;;;;;;;;;;5050714;27;20049;-66
2022/07/21 14:47:49;;;;;;;8.07;4.43;;;;;;;;;;5050800;28;20037;-66
2022/07/21 14:50:17;;;;;;;4.60;3.60;;;;;;;;;;5050446;28;20124;-66
2022/07/21 14:52:52;;;;;;;6.07;3.80;;;;;;;;;;5050422;28;20037;-66
2022/07/21 14:55:22;;;;;;;5.03;3.38;;;;;;;;;;5118666;27;20455;-67
2022/07/21 14:57:50;;;;;;;9.63;3.97;;;;;;;;;;5050054;28;20037;-66